createdAt,value
2019-03-20T00:01:43.578Z,5.9
2019-03-20T00:16:51.251Z,6
2019-03-20T00:32:03.899Z,6.1
2019-03-20T00:47:15.182Z,5.9
2019-03-20T01:02:29.151Z,5.9
2019-03-20T01:17:41.704Z,5.9
2019-03-20T01:32:54.264Z,5.9
2019-03-20T01:48:00.224Z,6.1
2019-03-20T02:03:19.612Z,6.1
2019-03-20T02:18:32.223Z,5.8
2019-03-20T02:33:44.773Z,5.8
2019-03-20T02:48:57.317Z,5.6
2019-03-20T03:04:09.966Z,5.3
2019-03-20T03:19:22.016Z,5.1
2019-03-20T03:34:34.150Z,4.7
2019-03-20T03:49:46.280Z,4.6
2019-03-20T04:04:55.658Z,4.5
2019-03-20T04:20:10.373Z,4.4
2019-03-20T04:35:22.427Z,4.3
2019-03-20T04:50:34.568Z,4.1
2019-03-20T05:05:38.354Z,4
2019-03-20T05:20:58.170Z,4
2019-03-20T05:36:10.095Z,4
2019-03-20T05:51:22.095Z,3.9
2019-03-20T06:06:33.861Z,4.1
2019-03-20T06:21:46.356Z,4.3
2019-03-20T06:36:57.910Z,4.5
2019-03-20T06:52:10.109Z,4.8
2019-03-20T07:07:15.313Z,5.3
2019-03-20T07:22:35.806Z,5.7
2019-03-20T07:37:55.483Z,6.7
2019-03-20T07:53:00.514Z,6.8
2019-03-20T08:08:13.493Z,7.1
2019-03-20T08:23:26.728Z,7.7
2019-03-20T08:38:40.142Z,8.3
2019-03-20T08:53:55.315Z,8.6
2019-03-20T09:09:07.384Z,8.8
2019-03-20T09:24:21.202Z,9.1
2019-03-20T09:39:35.143Z,9.6
2019-03-20T09:54:49.210Z,9.8
2019-03-20T10:10:01.154Z,10.3
2019-03-20T10:25:17.810Z,10.6
2019-03-20T10:40:32.313Z,11.2
2019-03-20T10:55:48.031Z,11.7
2019-03-20T11:10:53.158Z,12.1
2019-03-20T11:26:17.147Z,12.8
2019-03-20T11:41:32.491Z,13
2019-03-20T11:56:48.141Z,13.2
2019-03-20T12:12:03.650Z,13.7
2019-03-20T12:27:15.681Z,14
2019-03-20T12:42:36.402Z,14.8
2019-03-20T12:57:52.872Z,15
2019-03-20T13:13:10.068Z,15.4
2019-03-20T13:28:12.065Z,15.6
2019-03-20T13:43:41.838Z,15.4
2019-03-20T13:59:02.779Z,15.5
2019-03-20T14:14:20.150Z,15.5
2019-03-20T14:29:39.584Z,15.5
2019-03-20T14:44:55.143Z,15.4
2019-03-20T15:00:08.446Z,15.3
2019-03-20T15:15:29.229Z,15.1
2019-03-20T15:30:46.002Z,14.9
2019-03-20T15:46:02.685Z,14.6
2019-03-20T16:01:04.231Z,14.5
2019-03-20T16:16:34.035Z,15.8
2019-03-20T16:31:52.812Z,15.1
2019-03-20T16:47:10.676Z,13.9
2019-03-20T17:02:26.841Z,13
2019-03-20T17:17:42.242Z,12.5
2019-03-20T17:32:58.573Z,12
2019-03-20T17:48:11.982Z,11.4
2019-03-20T18:03:26.481Z,11
2019-03-20T18:18:40.883Z,10.7
2019-03-20T18:33:46.379Z,10.4
2019-03-20T18:49:09.342Z,10
2019-03-20T19:04:23.308Z,9.8
2019-03-20T19:19:37.254Z,9.4
2019-03-20T19:34:50.942Z,8.8
2019-03-20T19:50:02.253Z,8.7
2019-03-20T20:05:18.094Z,8.5
2019-03-20T20:20:31.564Z,8.4
2019-03-20T20:35:45.009Z,8.5
2019-03-20T20:50:49.528Z,9
2019-03-20T21:06:13.295Z,8.8
2019-03-20T21:21:26.953Z,8.4
2019-03-20T21:36:40.425Z,8.1
2019-03-20T21:51:53.660Z,7.7
2019-03-20T22:07:03.041Z,7.4
2019-03-20T22:22:19.915Z,6.9
2019-03-20T22:37:32.795Z,6.7
2019-03-20T22:52:45.638Z,6.5
2019-03-20T23:07:48.507Z,6.3
2019-03-20T23:23:11.158Z,6.4
2019-03-20T23:38:23.961Z,6.5
2019-03-20T23:53:36.759Z,6.6
